Time;durP1;ratioP1;P1;durP2;ratioP2;P2;SDS_P1;SDS_P2;PMS_P1;PMS_P2;Temp;Humidity;BMP_temperature;BMP_pressure;BME280_temperature;BME280_humidity;BME280_pressure;Samples;Min_cycle;Max_cycle;Signal;HPM_P1;HPM_P2
2023/01/20 00:01:47;;;;;;;22.60;4.90;;;;;;;8.51;82.73;97885.84;105473;1258;74955;-24
2023/01/20 00:04:14;;;;;;;19.40;4.50;;;;;;;8.75;81.16;97884.31;105313;1260;62895;-24
2023/01/20 00:06:41;;;;;;;14.20;4.80;;;;;;;8.61;80.02;97901.42;105471;1262;62661;-24
2023/01/20 00:09:12;;;;;;;10.20;3.90;;;;;;;8.29;80.22;97913.27;105485;1260;75641;-24
2023/01/20 00:11:39;;;;;;;15.60;3.80;;;;;;;7.91;81.20;97915.18;105270;1265;75790;-24
2023/01/20 00:14:07;;;;;;;17.50;4.00;;;;;;;7.72;82.54;97911.84;105587;1259;74660;-24
2023/01/20 00:16:35;;;;;;;23.90;5.00;;;;;;;8.20;82.44;97910.75;105577;1260;61816;-24
2023/01/20 00:19:02;;;;;;;18.40;5.20;;;;;;;8.47;81.39;97911.95;105595;1259;62499;-24
2023/01/20 00:21:29;;;;;;;19.40;4.00;;;;;;;8.39;81.60;97918.50;105634;1258;76453;-24
2023/01/20 00:23:56;;;;;;;15.40;4.30;;;;;;;8.19;82.06;97921.05;105594;1256;75554;-25
2023/01/20 00:26:23;;;;;;;18.80;4.50;;;;;;;7.96;82.70;97916.80;105620;1259;74236;-25
2023/01/20 00:28:54;;;;;;;18.00;4.50;;;;;;;7.82;83.87;97918.56;105533;1257;63244;-24
2023/01/20 00:31:23;;;;;;;15.40;4.20;;;;;;;8.39;83.70;97931.30;105605;1257;61899;-24
2023/01/20 00:33:51;;;;;;;15.60;5.30;;;;;;;8.78;82.07;97944.14;105581;1262;75275;-24
2023/01/20 00:36:19;;;;;;;23.80;4.60;;;;;;;8.75;81.39;97956.71;105589;1260;76604;-24
2023/01/20 00:38:46;;;;;;;25.50;4.00;;;;;;;8.41;81.66;97955.70;105586;1257;74978;-24
2023/01/20 00:41:13;;;;;;;13.50;4.60;;;;;;;8.08;83.10;97952.88;105611;1255;62591;-23
2023/01/20 00:43:59;;;;;;;16.60;5.20;;;;;;;7.83;84.32;97954.74;105577;1259;61105;-23
2023/01/20 00:46:26;;;;;;;14.20;4.00;;;;;;;8.18;83.90;97968.45;105618;1258;75546;-24
2023/01/20 00:48:53;;;;;;;12.30;4.20;;;;;;;8.60;82.31;97971.39;105637;1259;76238;-24
2023/01/20 00:51:20;;;;;;;16.00;5.10;;;;;;;8.59;81.76;97971.60;105591;1255;75154;-24
2023/01/20 00:53:47;;;;;;;20.10;4.70;;;;;;;8.38;81.46;97970.34;105529;1259;62017;-24
2023/01/20 00:56:14;;;;;;;16.30;4.80;;;;;;;8.12;81.79;97975.07;105603;1259;62480;-24
2023/01/20 00:58:43;;;;;;;19.90;5.60;;;;;;;7.86;82.07;97984.38;105372;1257;76504;-24
2023/01/20 01:01:28;;;;;;;16.00;4.10;;;;;;;7.66;82.93;97985.42;105530;1257;75671;-24
2023/01/20 01:03:55;;;;;;;13.50;3.40;;;;;;;8.22;82.99;97980.61;105566;1257;75471;-24
2023/01/20 01:06:22;;;;;;;16.70;4.90;;;;;;;8.74;80.88;97982.86;105491;1256;61644;-24
2023/01/20 01:08:49;;;;;;;14.10;3.80;;;;;;;8.71;79.63;97982.66;105401;1255;61761;-23
2023/01/20 01:11:16;;;;;;;18.20;4.60;;;;;;;8.49;79.80;97974.38;105324;1256;75984;-24
2023/01/20 01:13:43;;;;;;;20.10;4.00;;;;;;;8.20;80.61;97969.34;105570;1259;76324;-24
2023/01/20 01:16:11;;;;;;;12.70;4.10;;;;;;;7.96;81.50;97973.36;105514;1259;74879;-24
2023/01/20 01:18:39;;;;;;;21.50;4.30;;;;;;;7.77;81.83;97982.06;105494;1254;62976;-24
2023/01/20 01:21:11;;;;;;;9.40;2.90;;;;;;;7.62;82.31;97993.02;105442;1259;62492;-24
2023/01/20 01:23:38;;;;;;;12.30;2.80;;;;;;;8.02;82.31;98004.27;105255;1263;76255;-24
2023/01/20 01:26:06;;;;;;;18.10;4.40;;;;;;;8.50;81.35;98013.74;105253;1257;75962;-24
2023/01/20 01:28:33;;;;;;;19.10;4.40;;;;;;;8.56;80.85;98014.99;105497;1259;74200;-24
2023/01/20 01:31:04;;;;;;;15.20;3.70;;;;;;;8.41;80.91;98009.66;105517;1255;62551;-24
2023/01/20 01:33:31;;;;;;;14.70;4.00;;;;;;;8.14;81.21;98013.74;105538;1256;63237;-24
2023/01/20 01:35:59;;;;;;;15.20;4.10;;;;;;;7.87;81.28;98016.81;105616;1257;76292;-24
2023/01/20 01:38:27;;;;;;;9.00;2.90;;;;;;;7.57;81.86;98013.43;105644;1256;75774;-24
2023/01/20 01:40:54;;;;;;;11.50;3.40;;;;;;;7.93;82.50;98008.48;105518;1255;73596;-24
2023/01/20 01:43:22;;;;;;;16.70;3.60;;;;;;;8.46;81.48;98019.60;105162;1256;62098;-24
2023/01/20 01:45:49;;;;;;;14.30;3.80;;;;;;;8.53;79.89;98027.50;105541;1259;62890;-24
2023/01/20 01:48:17;;;;;;;10.40;4.10;;;;;;;8.35;79.69;98029.22;105438;1257;75087;-23
2023/01/20 01:50:52;;;;;;;13.00;3.80;;;;;;;8.10;80.47;98017.59;105476;1262;77131;-24
2023/01/20 01:53:19;;;;;;;14.70;3.90;;;;;;;7.81;80.75;98015.41;105535;1256;74190;-24
2023/01/20 01:55:55;;;;;;;11.20;3.70;;;;;;;7.46;81.03;98020.65;105527;1256;62844;-24
2023/01/20 01:58:25;;;;;;;10.70;2.70;;;;;;;7.22;82.51;98030.25;105504;1256;61909;-24
2023/01/20 02:00:52;;;;;;;17.00;3.50;;;;;;;7.69;82.92;98037.16;105427;1257;74608;-23
2023/01/20 02:03:19;;;;;;;14.00;3.60;;;;;;;8.22;81.91;98048.86;105567;1256;76715;-24
2023/01/20 02:05:47;;;;;;;12.20;3.60;;;;;;;8.23;80.84;98051.02;105467;1261;73980;-23
2023/01/20 02:08:14;;;;;;;7.30;3.20;;;;;;;8.00;81.07;98055.64;105328;1256;61495;-24
2023/01/20 02:10:41;;;;;;;12.60;3.90;;;;;;;7.68;81.51;98052.66;105548;1255;62755;-23
2023/01/20 02:13:08;;;;;;;15.20;3.80;;;;;;;7.33;82.04;98052.46;105566;1256;76322;-24
2023/01/20 02:15:43;;;;;;;12.90;2.70;;;;;;;7.02;82.68;98062.98;105577;1259;76598;-24
2023/01/20 02:18:13;;;;;;;7.80;2.50;;;;;;;7.30;83.00;98069.67;105608;1257;74984;-24
2023/01/20 02:21:02;;;;;;;9.50;3.00;;;;;;;7.72;82.08;98074.39;105598;1259;61894;-24
2023/01/20 02:24:07;;;;;;;7.30;3.30;;;;;;;7.73;81.73;98070.84;105536;1257;61518;-24
2023/01/20 02:26:56;;;;;;;5.50;2.30;;;;;;;7.43;82.03;98057.67;105599;1254;76256;-24
2023/01/20 02:29:26;;;;;;;9.70;3.90;;;;;;;7.07;82.39;98061.31;105629;1258;75009;-24
2023/01/20 02:32:05;;;;;;;7.70;3.20;;;;;;;6.85;83.46;98069.48;105550;1262;75328;-24
2023/01/20 02:34:39;;;;;;;9.10;2.00;;;;;;;6.67;84.31;98075.10;105527;1259;64159;-24
2023/01/20 02:37:32;;;;;;;9.00;2.40;;;;;;;7.19;84.21;98077.95;105364;1257;62820;-24
2023/01/20 02:40:21;;;;;;;7.40;4.30;;;;;;;7.73;82.59;98067.55;105596;1256;76046;-24
2023/01/20 02:42:59;;;;;;;14.50;3.70;;;;;;;7.65;81.61;98059.94;105270;1257;76788;-24
2023/01/20 02:46:02;;;;;;;14.40;3.70;;;;;;;7.38;81.60;98063.93;105557;1261;75183;-24
2023/01/20 02:48:34;;;;;;;9.10;4.30;;;;;;;7.04;81.99;98074.16;105368;1260;62644;-24
2023/01/20 02:51:08;;;;;;;11.20;3.80;;;;;;;6.72;82.73;98078.95;105506;1262;62410;-24
2023/01/20 02:53:39;;;;;;;4.80;2.40;;;;;;;6.49;83.45;98083.25;105553;1256;75290;-24
2023/01/20 02:56:06;;;;;;;8.80;2.70;;;;;;;6.92;82.80;98096.56;105598;1256;77106;-24
2023/01/20 02:58:39;;;;;;;8.80;3.00;;;;;;;7.39;81.11;98108.91;105441;1256;75430;-24
2023/01/20 03:01:12;;;;;;;7.00;3.30;;;;;;;7.37;79.96;98113.05;105147;1257;62874;-24
2023/01/20 03:03:41;;;;;;;12.30;3.80;;;;;;;7.05;80.79;98114.98;105145;1257;61753;-23
2023/01/20 03:06:13;;;;;;;6.80;3.30;;;;;;;6.78;81.88;98115.44;105245;1256;75307;-25
2023/01/20 03:08:40;;;;;;;11.20;3.80;;;;;;;6.50;82.73;98114.36;105461;1259;76183;-25
2023/01/20 03:11:07;;;;;;;8.10;2.70;;;;;;;6.29;83.41;98116.69;105105;1257;73084;-25
2023/01/20 03:13:45;;;;;;;8.30;2.80;;;;;;;6.73;82.88;98124.09;105414;1255;62568;-25
2023/01/20 03:16:17;;;;;;;6.30;2.70;;;;;;;7.26;80.73;98125.02;105305;1260;62501;-25
2023/01/20 03:18:45;;;;;;;9.90;2.90;;;;;;;7.29;79.52;98128.71;105148;1257;76527;-25
2023/01/20 03:21:12;;;;;;;6.70;2.60;;;;;;;7.04;79.33;98129.42;105504;1257;76668;-25
2023/01/20 03:23:41;;;;;;;6.60;3.00;;;;;;;6.66;80.28;98130.57;105324;1257;73925;-25
2023/01/20 03:26:10;;;;;;;9.60;3.20;;;;;;;6.34;81.75;98139.20;105350;1260;61742;-25
2023/01/20 03:28:37;;;;;;;4.00;1.70;;;;;;;6.17;82.56;98150.02;105245;1261;62634;-24
2023/01/20 03:31:11;;;;;;;5.00;2.20;;;;;;;6.59;81.93;98169.36;105613;1259;75306;-25
2023/01/20 03:33:38;;;;;;;4.00;2.20;;;;;;;7.06;79.82;98171.48;105522;1260;77198;-25
2023/01/20 03:36:05;;;;;;;4.20;2.70;;;;;;;7.02;78.90;98173.54;105274;1261;75242;-25
2023/01/20 03:38:32;;;;;;;8.60;3.40;;;;;;;6.78;79.47;98177.54;105195;1260;62839;-25
2023/01/20 03:41:03;;;;;;;5.60;2.80;;;;;;;6.55;80.06;98181.27;105357;1259;61873;-25
2023/01/20 03:43:57;;;;;;;8.30;3.60;;;;;;;6.30;80.93;98200.06;105248;1257;75042;-25
2023/01/20 03:46:27;;;;;;;5.30;2.80;;;;;;;6.04;81.88;98207.02;105276;1255;75987;-25
2023/01/20 03:49:14;;;;;;;6.00;2.50;;;;;;;5.90;82.83;98211.67;105315;1259;74108;-25
2023/01/20 03:51:54;;;;;;;6.20;1.90;;;;;;;6.50;82.77;98217.63;105396;1256;61069;-25
2023/01/20 03:54:23;;;;;;;4.30;2.20;;;;;;;7.04;80.62;98226.70;105301;1257;61356;-25
2023/01/20 03:57:02;;;;;;;4.50;2.50;;;;;;;6.99;79.21;98226.29;105492;1260;76116;-25
2023/01/20 03:59:32;;;;;;;5.50;2.80;;;;;;;6.71;79.57;98228.83;105239;1260;76606;-25
2023/01/20 04:02:04;;;;;;;6.80;3.20;;;;;;;6.44;80.40;98237.63;105180;1254;75167;-25
2023/01/20 04:04:32;;;;;;;8.80;3.20;;;;;;;6.18;81.03;98231.00;105168;1257;62848;-25
2023/01/20 04:06:59;;;;;;;8.60;2.70;;;;;;;5.92;82.00;98232.73;105466;1255;61477;-25
2023/01/20 04:09:28;;;;;;;7.00;3.20;;;;;;;6.08;82.38;98229.30;105188;1257;75996;-25
2023/01/20 04:11:55;;;;;;;5.70;2.80;;;;;;;6.35;81.16;98228.25;105304;1256;75603;-25
2023/01/20 04:14:22;;;;;;;6.90;2.80;;;;;;;6.44;80.58;98233.31;105404;1256;75561;-25
2023/01/20 04:16:55;;;;;;;11.70;3.20;;;;;;;6.25;80.66;98235.92;105434;1260;63165;-25
2023/01/20 04:19:23;;;;;;;7.50;3.30;;;;;;;5.91;82.28;98241.05;105287;1256;61419;-25
2023/01/20 04:22:15;;;;;;;4.60;3.20;;;;;;;5.75;82.74;98254.13;105580;1257;76166;-25
2023/01/20 04:24:59;;;;;;;7.60;2.80;;;;;;;5.66;83.26;98270.95;105454;1257;77252;-25
2023/01/20 04:27:25;;;;;;;7.90;2.50;;;;;;;6.34;82.68;98271.41;105543;1257;74851;-25
2023/01/20 04:29:52;;;;;;;5.00;2.60;;;;;;;6.86;81.06;98275.60;105425;1259;62867;-25
2023/01/20 04:32:19;;;;;;;6.80;2.50;;;;;;;6.88;80.17;98277.36;105474;1256;62622;-23
2023/01/20 04:34:50;;;;;;;4.90;2.80;;;;;;;6.70;79.97;98284.09;105446;1257;75072;-24
2023/01/20 04:37:17;;;;;;;5.60;3.00;;;;;;;6.46;80.14;98286.58;105430;1260;76508;-24
2023/01/20 04:39:44;;;;;;;6.20;3.10;;;;;;;6.23;80.30;98283.35;105520;1254;75294;-24
2023/01/20 04:42:11;;;;;;;9.10;3.30;;;;;;;5.97;80.47;98280.27;105415;1258;62850;-24
2023/01/20 04:44:37;;;;;;;4.70;2.40;;;;;;;5.77;81.10;98287.69;105443;1258;62793;-24
2023/01/20 04:47:04;;;;;;;4.70;2.30;;;;;;;6.16;81.32;98285.73;105516;1257;75029;-24
2023/01/20 04:49:33;;;;;;;6.10;3.40;;;;;;;6.64;79.13;98276.39;105426;1260;76780;-24
2023/01/20 04:52:00;;;;;;;7.00;3.70;;;;;;;6.62;78.51;98268.84;105078;1256;73915;-24
2023/01/20 04:54:27;;;;;;;5.00;3.30;;;;;;;6.45;79.17;98271.45;105242;1257;63001;-24
2023/01/20 04:56:54;;;;;;;8.30;3.40;;;;;;;6.26;79.44;98268.26;105476;1255;62650;-24
2023/01/20 04:59:21;;;;;;;6.80;3.50;;;;;;;5.92;80.28;98263.56;105364;1256;76243;-24
2023/01/20 05:01:48;;;;;;;6.70;3.70;;;;;;;5.61;81.79;98260.31;105336;1256;76586;-24
2023/01/20 05:04:15;;;;;;;4.30;2.70;;;;;;;5.32;83.42;98261.73;105344;1259;75029;-24
2023/01/20 05:06:43;;;;;;;4.90;3.00;;;;;;;5.51;83.59;98258.45;105309;1259;62553;-24
2023/01/20 05:09:12;;;;;;;11.30;6.10;;;;;;;5.76;82.39;98252.11;105325;1256;61707;-24
2023/01/20 05:11:39;;;;;;;14.30;6.10;;;;;;;5.63;82.92;98253.61;105099;1264;75988;-24
2023/01/20 05:14:06;;;;;;;11.30;7.00;;;;;;;5.46;83.99;98252.44;105420;1256;75529;-24
2023/01/20 05:16:33;;;;;;;10.60;5.80;;;;;;;5.28;84.76;98248.23;105344;1256;73672;-24
2023/01/20 05:19:00;;;;;;;12.20;5.70;;;;;;;5.05;85.79;98251.90;105403;1259;61133;-24
2023/01/20 05:21:27;;;;;;;8.80;4.30;;;;;;;4.95;87.14;98256.77;105401;1254;61564;-24
2023/01/20 05:23:55;;;;;;;11.00;5.00;;;;;;;5.33;85.94;98250.60;105574;1256;76220;-25
2023/01/20 05:26:23;;;;;;;12.40;5.80;;;;;;;5.44;84.51;98252.61;105642;1256;76586;-24
2023/01/20 05:28:49;;;;;;;16.40;7.50;;;;;;;5.08;84.76;98255.64;105381;1256;73113;-24
2023/01/20 05:31:17;;;;;;;15.50;7.50;;;;;;;4.86;85.77;98263.39;105530;1258;62538;-24
2023/01/20 05:33:44;;;;;;;12.10;5.00;;;;;;;4.80;85.91;98267.63;105470;1256;61765;-24
2023/01/20 05:36:11;;;;;;;8.60;5.10;;;;;;;4.75;86.16;98269.46;105562;1256;75233;-24
2023/01/20 05:38:38;;;;;;;15.10;7.00;;;;;;;4.96;85.33;98271.52;105291;1256;76810;-24
2023/01/20 05:41:06;;;;;;;9.10;6.10;;;;;;;5.05;84.72;98283.79;105324;1259;73889;-24
2023/01/20 05:43:33;;;;;;;9.60;6.00;;;;;;;5.04;84.31;98290.73;105167;1257;61502;-24
2023/01/20 05:46:00;;;;;;;8.90;5.30;;;;;;;4.80;84.65;98292.39;105605;1257;62513;-24
2023/01/20 05:48:28;;;;;;;11.80;6.70;;;;;;;4.42;86.34;98287.73;105593;1256;76401;-24
2023/01/20 05:50:55;;;;;;;6.90;4.00;;;;;;;4.32;87.55;98290.29;105171;1262;76479;-24
2023/01/20 05:53:22;;;;;;;11.70;6.20;;;;;;;4.70;86.04;98285.34;105539;1259;75134;-24
2023/01/20 05:55:49;;;;;;;8.50;5.50;;;;;;;4.63;85.39;98283.42;105415;1258;61504;-24
2023/01/20 05:58:16;;;;;;;13.70;6.50;;;;;;;4.34;86.30;98282.57;105444;1256;62007;-24
2023/01/20 06:00:43;;;;;;;9.20;6.10;;;;;;;4.04;87.49;98284.74;105419;1259;74925;-24
2023/01/20 06:03:10;;;;;;;7.60;5.20;;;;;;;3.95;88.07;98283.81;105184;1262;76478;-24
2023/01/20 06:05:37;;;;;;;8.00;6.30;;;;;;;4.35;86.09;98283.91;105387;1259;73839;-24
2023/01/20 06:08:04;;;;;;;9.40;5.80;;;;;;;4.52;84.50;98286.67;105184;1261;63109;-23
2023/01/20 06:10:31;;;;;;;12.20;7.10;;;;;;;4.49;84.31;98284.89;105428;1260;62425;-23
2023/01/20 06:12:58;;;;;;;11.70;7.90;;;;;;;4.22;85.06;98287.19;105328;1256;74458;-23
2023/01/20 06:15:25;;;;;;;14.20;8.70;;;;;;;3.88;86.48;98294.73;105432;1256;76489;-24
2023/01/20 06:17:53;;;;;;;15.20;8.70;;;;;;;3.75;87.36;98295.73;105413;1259;75149;-24
2023/01/20 06:20:20;;;;;;;14.10;7.60;;;;;;;4.00;86.71;98295.02;105370;1254;62785;-24
2023/01/20 06:22:47;;;;;;;13.10;7.70;;;;;;;4.20;85.80;98300.23;105311;1256;61780;-23
2023/01/20 06:25:14;;;;;;;17.30;8.90;;;;;;;4.09;85.66;98302.14;105310;1256;76338;-23
2023/01/20 06:27:42;;;;;;;17.20;9.50;;;;;;;3.96;86.29;98309.15;105520;1257;76890;-23
2023/01/20 06:30:10;;;;;;;16.10;9.70;;;;;;;3.83;86.60;98312.59;105462;1257;74871;-24
2023/01/20 06:32:37;;;;;;;17.80;9.00;;;;;;;3.62;87.67;98310.66;105159;1255;62593;-24
2023/01/20 06:35:04;;;;;;;14.70;8.90;;;;;;;3.84;87.05;98316.99;105430;1260;62936;-24
2023/01/20 06:37:31;;;;;;;12.70;7.90;;;;;;;4.15;85.41;98320.98;105243;1257;75047;-24
2023/01/20 06:39:58;;;;;;;13.40;8.80;;;;;;;4.09;84.71;98326.89;105581;1256;76431;-24
2023/01/20 06:42:25;;;;;;;11.20;7.50;;;;;;;3.73;85.54;98331.13;105586;1257;73944;-24
2023/01/20 06:44:52;;;;;;;10.30;7.40;;;;;;;3.48;86.00;98338.01;105617;1259;61737;-24
2023/01/20 06:47:19;;;;;;;12.10;7.30;;;;;;;3.38;86.56;98347.73;105568;1256;63065;-24
2023/01/20 06:49:46;;;;;;;14.90;7.10;;;;;;;3.75;85.02;98355.02;105547;1259;76336;-24
2023/01/20 06:52:14;;;;;;;10.60;7.50;;;;;;;3.76;84.29;98364.39;105269;1259;76849;-25
2023/01/20 06:54:41;;;;;;;11.60;7.90;;;;;;;3.73;84.33;98371.94;105519;1256;75051;-25
2023/01/20 06:57:08;;;;;;;12.40;7.90;;;;;;;3.42;84.80;98376.31;105417;1256;62004;-25
2023/01/20 06:59:35;;;;;;;9.90;6.70;;;;;;;3.22;85.76;98387.33;105528;1259;62838;-26
2023/01/20 07:02:02;;;;;;;8.70;6.00;;;;;;;3.12;86.54;98390.48;105413;1259;76015;-26
2023/01/20 07:04:30;;;;;;;7.40;4.40;;;;;;;3.35;86.26;98393.38;105364;1257;76460;-25
2023/01/20 07:06:57;;;;;;;10.10;6.70;;;;;;;3.62;84.54;98388.59;105487;1254;74781;-25
2023/01/20 07:09:24;;;;;;;10.80;6.80;;;;;;;3.47;83.89;98388.17;105260;1257;62860;-23
2023/01/20 07:11:50;;;;;;;10.40;6.60;;;;;;;3.10;85.49;98382.88;105284;1256;62752;-24
2023/01/20 07:14:17;;;;;;;10.60;6.70;;;;;;;2.91;86.37;98368.95;105445;1259;75107;-24
2023/01/20 07:16:45;;;;;;;9.40;6.10;;;;;;;2.59;87.30;98369.65;105346;1259;76511;-24
2023/01/20 07:19:12;;;;;;;9.60;5.70;;;;;;;3.01;86.79;98371.79;105332;1255;74256;-23
2023/01/20 07:21:39;;;;;;;7.80;5.30;;;;;;;2.95;86.16;98373.15;105550;1258;63018;-23
2023/01/20 07:24:07;;;;;;;8.70;6.40;;;;;;;2.84;86.70;98371.75;105508;1255;62227;-23
2023/01/20 07:26:35;;;;;;;11.00;6.20;;;;;;;2.72;87.13;98371.27;105481;1257;74210;-23
2023/01/20 07:29:02;;;;;;;8.00;5.00;;;;;;;2.54;88.02;98373.00;105633;1261;75068;-24
2023/01/20 07:31:33;;;;;;;7.50;4.40;;;;;;;2.85;87.67;98373.23;105576;1258;75467;-23
2023/01/20 07:34:00;;;;;;;7.40;5.00;;;;;;;3.15;86.07;98374.02;105464;1257;62719;-23
2023/01/20 07:36:27;;;;;;;9.40;6.20;;;;;;;3.01;85.94;98376.42;105563;1259;61484;-23
2023/01/20 07:38:54;;;;;;;9.60;6.00;;;;;;;2.80;86.86;98368.42;105470;1259;75751;-23
2023/01/20 07:41:21;;;;;;;10.60;6.80;;;;;;;2.52;88.04;98361.52;105426;1259;75073;-24
2023/01/20 07:43:49;;;;;;;9.90;5.80;;;;;;;2.33;88.91;98355.42;105531;1260;74249;-22
2023/01/20 07:46:16;;;;;;;10.60;7.40;;;;;;;2.64;88.08;98357.88;105335;1257;61492;-22
2023/01/20 07:48:43;;;;;;;12.20;7.10;;;;;;;2.64;87.19;98360.48;105645;1258;62787;-22
2023/01/20 07:51:11;;;;;;;9.20;5.80;;;;;;;2.46;87.68;98358.27;105562;1257;76000;-23
2023/01/20 07:53:49;;;;;;;7.20;5.20;;;;;;;2.47;87.17;98361.27;105557;1262;77234;-22
2023/01/20 07:56:24;;;;;;;8.90;6.10;;;;;;;2.28;88.19;98376.59;105253;1262;75157;-22
2023/01/20 07:58:52;;;;;;;10.40;6.00;;;;;;;2.75;87.29;98390.46;105193;1262;63049;-22
2023/01/20 08:01:23;;;;;;;11.40;6.00;;;;;;;2.82;86.06;98396.92;105420;1257;62847;-22
2023/01/20 08:03:50;;;;;;;10.90;5.90;;;;;;;2.45;87.18;98394.63;105226;1257;75578;-22
2023/01/20 08:06:20;;;;;;;14.60;9.00;;;;;;;2.38;88.12;98390.91;105487;1258;76952;-22
2023/01/20 08:08:47;;;;;;;17.00;10.10;;;;;;;2.27;88.80;98390.00;105632;1254;75146;-23
2023/01/20 08:11:16;;;;;;;21.30;13.40;;;;;;;2.67;87.96;98386.70;105506;1257;62587;-22
2023/01/20 08:13:43;;;;;;;104.00;62.30;;;;;;;2.95;86.44;98396.99;105198;1262;62744;-22
2023/01/20 08:16:11;;;;;;;23.00;12.70;;;;;;;2.89;86.31;98400.30;104121;1256;1718767;-22
2023/01/20 08:18:39;;;;;;;12.70;8.10;;;;;;;2.68;86.63;98401.83;105141;1256;77083;-22
2023/01/20 08:21:07;;;;;;;13.00;7.50;;;;;;;2.42;88.05;98405.61;105478;1259;74051;-23
2023/01/20 08:23:34;;;;;;;15.00;8.70;;;;;;;2.50;88.50;98409.42;105519;1259;62620;-23
2023/01/20 08:26:04;;;;;;;12.80;8.10;;;;;;;2.89;86.77;98413.81;105405;1259;61222;-22
2023/01/20 08:28:31;;;;;;;10.20;6.70;;;;;;;3.04;85.70;98421.34;105286;1257;76305;-23
2023/01/20 08:31:08;;;;;;;62.00;27.20;;;;;;;2.81;86.02;98424.38;105189;1262;76808;-22
2023/01/20 08:33:35;;;;;;;16.30;8.20;;;;;;;2.54;87.29;98426.50;105302;1259;73993;-23
2023/01/20 08:36:07;;;;;;;13.80;7.70;;;;;;;2.33;88.53;98428.17;105298;1256;62325;-23
2023/01/20 08:38:34;;;;;;;15.90;7.80;;;;;;;2.51;88.17;98432.13;105445;1257;61854;-22
2023/01/20 08:41:05;;;;;;;15.90;8.70;;;;;;;2.82;87.35;98435.34;105604;1262;75089;-23
2023/01/20 08:43:32;;;;;;;29.10;14.70;;;;;;;2.83;86.87;98432.84;105585;1263;75537;-22
2023/01/20 08:46:01;;;;;;;20.20;11.20;;;;;;;2.62;87.41;98432.02;105577;1256;73916;-23
2023/01/20 08:48:28;;;;;;;35.80;18.40;;;;;;;2.30;88.98;98431.99;105569;1256;63480;-22
2023/01/20 08:50:55;;;;;;;14.20;9.10;;;;;;;2.71;88.28;98431.84;105427;1259;62842;-22
2023/01/20 08:53:22;;;;;;;9.00;5.30;;;;;;;2.79;87.69;98439.10;105275;1259;75191;-22
2023/01/20 08:55:56;;;;;;;8.30;4.90;;;;;;;2.66;87.90;98446.21;105415;1257;76828;-22
2023/01/20 08:58:24;;;;;;;6.20;3.90;;;;;;;2.54;88.36;98446.89;105266;1256;74088;-23
2023/01/20 09:00:51;;;;;;;4.20;3.30;;;;;;;2.46;88.94;98447.85;105319;1256;61657;-23
2023/01/20 09:03:18;;;;;;;8.50;5.80;;;;;;;2.70;88.76;98444.94;105285;1257;62518;-23
2023/01/20 09:05:46;;;;;;;11.10;6.70;;;;;;;2.83;87.74;98445.23;105518;1259;75216;-23
2023/01/20 09:08:13;;;;;;;13.30;7.30;;;;;;;2.75;88.00;98457.84;105526;1257;75661;-23
2023/01/20 09:10:40;;;;;;;9.30;6.80;;;;;;;2.71;88.29;98474.70;105154;1262;74874;-23
2023/01/20 09:13:07;;;;;;;9.40;6.00;;;;;;;2.78;87.94;98504.29;105246;1259;62317;-24
2023/01/20 09:15:34;;;;;;;6.80;4.10;;;;;;;2.64;87.69;98522.75;105349;1262;62511;-23
2023/01/20 09:18:01;;;;;;;6.60;4.40;;;;;;;2.97;87.34;98524.46;105464;1256;76357;-23
2023/01/20 09:20:29;;;;;;;5.00;3.50;;;;;;;3.35;85.47;98518.81;105502;1257;76670;-23
2023/01/20 09:23:00;;;;;;;6.50;4.60;;;;;;;3.34;84.85;98513.36;105348;1258;74070;-23
2023/01/20 09:25:27;;;;;;;4.30;2.90;;;;;;;3.13;85.25;98515.47;105420;1262;63071;-23
2023/01/20 09:27:54;;;;;;;11.10;6.60;;;;;;;2.81;85.84;98511.33;105405;1257;61734;-23
2023/01/20 09:30:21;;;;;;;7.10;5.20;;;;;;;2.49;87.41;98510.08;105294;1260;75251;-23
2023/01/20 09:32:51;;;;;;;10.20;5.50;;;;;;;2.42;88.44;98513.00;105441;1257;76611;-23
2023/01/20 09:35:19;;;;;;;9.20;5.90;;;;;;;2.91;87.63;98513.02;105578;1257;75137;-22
2023/01/20 09:43:54;;;;;;;10.30;6.80;;;;;;;2.74;87.10;98521.32;105559;1262;74251;-24
2023/01/20 09:46:37;;;;;;;10.60;6.10;;;;;;;2.42;88.73;98519.03;105531;1259;75687;-23
2023/01/20 09:55:49;;;;;;;8.10;5.20;;;;;;;2.84;87.70;98500.16;105573;1260;61734;-23
2023/01/20 09:58:44;;;;;;;4.70;3.50;;;;;;;2.34;89.84;98489.63;105617;1263;76328;-23
2023/01/20 10:01:17;;;;;;;6.00;4.10;;;;;;;2.31;90.97;98476.95;105372;1259;76784;-22
2023/01/20 10:03:51;;;;;;;7.40;4.60;;;;;;;2.59;90.09;98469.73;105110;1257;74914;-23
2023/01/20 10:06:42;;;;;;;8.80;5.20;;;;;;;2.56;89.81;98466.80;105136;1256;61834;-22
2023/01/20 10:09:51;;;;;;;6.90;4.90;;;;;;;2.50;90.23;98461.36;105326;1259;61441;-22
2023/01/20 10:12:31;;;;;;;9.40;5.20;;;;;;;2.45;91.05;98452.54;105078;1257;76140;-22
2023/01/20 10:15:16;;;;;;;12.90;8.70;;;;;;;2.60;90.41;98448.44;105190;1261;76657;-23
2023/01/20 10:18:04;;;;;;;13.70;8.60;;;;;;;2.80;89.66;98445.56;105246;1254;74429;-23
2023/01/20 10:20:44;;;;;;;11.30;7.80;;;;;;;2.62;90.05;98440.09;105507;1256;61927;-23
2023/01/20 10:23:20;;;;;;;10.40;6.50;;;;;;;2.33;91.28;98439.32;105435;1260;62565;-22
2023/01/20 10:26:09;;;;;;;11.90;9.50;;;;;;;2.53;91.49;98444.05;105099;1255;75033;-22
2023/01/20 10:29:05;;;;;;;20.60;10.50;;;;;;;2.87;89.82;98451.98;105156;1262;76370;-23
2023/01/20 10:31:34;;;;;;;9.70;6.60;;;;;;;3.05;89.47;98461.77;105385;1260;74132;-21
2023/01/20 10:34:11;;;;;;;65.20;46.30;;;;;;;2.87;89.44;98462.64;105316;1254;61561;-21
2023/01/20 10:36:40;;;;;;;41.30;30.10;;;;;;;2.65;90.30;98457.41;105140;1255;61739;-21
2023/01/20 10:39:16;;;;;;;26.30;17.50;;;;;;;2.99;89.90;98456.95;105246;1260;76180;-23
2023/01/20 10:41:53;;;;;;;14.30;10.20;;;;;;;2.92;89.24;98456.50;105260;1257;76837;-22
2023/01/20 10:44:20;;;;;;;19.00;13.10;;;;;;;2.98;89.21;98459.59;105174;1256;72832;-21
2023/01/20 10:46:56;;;;;;;8.00;6.00;;;;;;;2.88;89.47;98461.55;105371;1256;61786;-22
2023/01/20 10:49:47;;;;;;;14.90;6.50;;;;;;;2.68;90.42;98447.48;105397;1256;61226;-22
2023/01/20 10:52:21;;;;;;;14.20;9.50;;;;;;;3.00;89.74;98440.75;105246;1261;76980;-22
2023/01/20 10:55:14;;;;;;;26.20;17.40;;;;;;;3.02;89.02;98433.23;105296;1259;75773;-22
2023/01/20 10:57:41;;;;;;;15.10;9.60;;;;;;;2.82;89.71;98430.54;105601;1262;75225;-22
2023/01/20 11:00:29;;;;;;;175.00;113.90;;;;;;;2.74;90.47;98436.84;105170;1260;63704;-22
2023/01/20 11:02:57;;;;;;;40.30;29.70;;;;;;;2.84;90.05;98434.38;105428;1254;61510;-21
2023/01/20 11:05:28;;;;;;;9.20;7.00;;;;;;;2.90;89.88;98426.80;105218;1264;76322;-21
2023/01/20 11:07:56;;;;;;;10.50;8.00;;;;;;;2.86;89.18;98438.38;105258;1260;75545;-22
2023/01/20 11:10:27;;;;;;;7.80;5.00;;;;;;;2.82;89.60;98449.73;105174;1262;75284;-22
2023/01/20 11:12:59;;;;;;;22.60;17.10;;;;;;;2.91;89.62;98456.74;105123;1261;63945;-22
2023/01/20 11:15:31;;;;;;;38.80;16.10;;;;;;;2.84;89.44;98447.73;105145;1262;62567;-21
2023/01/20 11:18:20;;;;;;;13.80;10.90;;;;;;;2.77;90.16;98431.15;105381;1259;74995;-22
2023/01/20 11:20:57;;;;;;;4.30;3.50;;;;;;;2.89;89.54;98419.97;105209;1261;76775;-22
2023/01/20 11:23:37;;;;;;;3.50;2.40;;;;;;;2.76;89.80;98421.48;105480;1260;74203;-22
2023/01/20 11:26:28;;;;;;;4.30;3.10;;;;;;;2.76;89.83;98427.96;105579;1262;61163;-22
2023/01/20 11:29:00;;;;;;;4.90;2.60;;;;;;;2.87;89.46;98424.58;105567;1257;61308;-22
2023/01/20 11:31:36;;;;;;;3.40;2.40;;;;;;;3.09;88.02;98414.70;105482;1260;76361;-22
2023/01/20 11:34:20;;;;;;;7.30;5.50;;;;;;;3.05;87.43;98409.06;105527;1259;75689;-21
2023/01/20 11:36:48;;;;;;;9.40;8.00;;;;;;;2.36;89.44;98396.32;105323;1257;75247;-22
2023/01/20 11:39:26;;;;;;;20.40;16.40;;;;;;;2.29;90.72;98390.27;105190;1260;61164;-21
2023/01/20 11:42:26;;;;;;;109.00;75.30;;;;;;;2.13;91.99;98388.41;105278;1260;61655;-22
2023/01/20 11:44:56;;;;;;;54.20;29.80;;;;;;;2.35;91.95;98393.86;105212;1256;76344;-22
2023/01/20 11:47:35;;;;;;;48.70;31.20;;;;;;;2.22;91.90;98395.41;105200;1260;76630;-22
2023/01/20 11:50:02;;;;;;;54.10;34.40;;;;;;;2.17;92.38;98396.20;105202;1260;75187;-22
2023/01/20 11:52:30;;;;;;;9.40;6.40;;;;;;;2.20;92.29;98394.16;105283;1259;62991;-22
2023/01/20 11:55:07;;;;;;;29.60;23.50;;;;;;;2.70;90.92;98393.52;105444;1259;62918;-22
2023/01/20 11:57:36;;;;;;;39.80;26.30;;;;;;;2.63;89.91;98403.38;105545;1262;76354;-22